createdAt,value
2022-11-30T00:00:28.000Z,43.7
2022-11-30T00:01:44.000Z,42.7
2022-11-30T00:02:59.000Z,46
2022-11-30T00:04:15.000Z,42.4
2022-11-30T00:05:32.000Z,42.9
2022-11-30T00:06:48.000Z,37.7
2022-11-30T00:08:04.000Z,42.2
2022-11-30T00:09:20.000Z,33.1
2022-11-30T00:10:37.000Z,37.9
2022-11-30T00:11:53.000Z,37.4
2022-11-30T00:13:09.000Z,36.2
2022-11-30T00:14:25.000Z,35.8
2022-11-30T00:15:42.000Z,34.9
2022-11-30T00:16:58.000Z,36.6
2022-11-30T00:18:14.000Z,33.2
2022-11-30T00:19:29.000Z,37.9
2022-11-30T00:20:45.000Z,33.7
2022-11-30T00:22:02.000Z,35.1
2022-11-30T00:23:18.000Z,33
2022-11-30T00:24:34.000Z,31
2022-11-30T00:25:50.000Z,33.4
2022-11-30T00:27:07.000Z,37.4
2022-11-30T00:28:23.000Z,35.6
2022-11-30T00:29:39.000Z,32.5
2022-11-30T00:30:55.000Z,31
2022-11-30T00:32:12.000Z,30.4
2022-11-30T00:33:28.000Z,33.1
2022-11-30T00:34:44.000Z,30.1
2022-11-30T00:35:59.000Z,26.9
2022-11-30T00:37:16.000Z,25
2022-11-30T00:38:32.000Z,28.3
2022-11-30T00:39:47.000Z,28.8
2022-11-30T00:41:03.000Z,30.2
2022-11-30T00:42:20.000Z,25.5
2022-11-30T00:43:36.000Z,28.8
2022-11-30T00:44:52.000Z,26.3
2022-11-30T00:46:08.000Z,24.9
2022-11-30T00:47:24.000Z,27.7
2022-11-30T00:48:41.000Z,25
2022-11-30T00:49:57.000Z,26.2
2022-11-30T00:51:13.000Z,28
2022-11-30T00:52:29.000Z,23.5
2022-11-30T00:53:46.000Z,23.9
2022-11-30T00:55:02.000Z,24.5
2022-11-30T00:56:17.000Z,20.2
2022-11-30T00:57:33.000Z,23
2022-11-30T00:58:50.000Z,23.1
2022-11-30T01:00:06.000Z,18.8
2022-11-30T01:01:21.000Z,20.4
2022-11-30T01:02:36.000Z,23.5
2022-11-30T01:03:53.000Z,20.7
2022-11-30T01:05:09.000Z,25.2
2022-11-30T01:06:24.000Z,23.4
2022-11-30T01:07:39.000Z,22.8
2022-11-30T01:08:56.000Z,22.7
2022-11-30T01:10:12.000Z,18.7
2022-11-30T01:11:28.000Z,19.9
2022-11-30T01:12:44.000Z,23
2022-11-30T01:14:00.000Z,24.4
2022-11-30T01:15:17.000Z,25.3
2022-11-30T01:16:33.000Z,20.2
2022-11-30T01:17:49.000Z,27.8
2022-11-30T01:19:05.000Z,16.8
2022-11-30T01:20:22.000Z,20.4
2022-11-30T01:21:38.000Z,19.6
2022-11-30T01:22:54.000Z,26
2022-11-30T01:24:09.000Z,24.2
2022-11-30T01:25:26.000Z,22.8
2022-11-30T01:26:42.000Z,24.4
2022-11-30T01:27:58.000Z,21
2022-11-30T01:29:14.000Z,21.5
2022-11-30T01:30:31.000Z,26
2022-11-30T01:31:47.000Z,26.2
2022-11-30T01:33:03.000Z,24.5
2022-11-30T01:34:19.000Z,27.6
2022-11-30T01:35:35.000Z,27.3
2022-11-30T01:36:52.000Z,25.6
2022-11-30T01:38:08.000Z,26
2022-11-30T01:39:24.000Z,26.7
2022-11-30T01:40:39.000Z,22.5
2022-11-30T01:41:56.000Z,26.3
2022-11-30T01:43:12.000Z,23.3
2022-11-30T01:44:28.000Z,26.7
2022-11-30T01:45:44.000Z,21.2
2022-11-30T01:47:01.000Z,24.4
2022-11-30T01:48:17.000Z,24.9
2022-11-30T01:49:33.000Z,24.2
2022-11-30T01:50:49.000Z,21
2022-11-30T01:52:06.000Z,25
2022-11-30T01:53:22.000Z,27.2
2022-11-30T01:54:38.000Z,23.5
2022-11-30T01:55:54.000Z,26.7
2022-11-30T01:57:09.000Z,27.3
2022-11-30T01:58:26.000Z,25.3
2022-11-30T01:59:42.000Z,28.3
2022-11-30T02:00:58.000Z,24.8
2022-11-30T02:02:14.000Z,23.7
2022-11-30T02:03:31.000Z,24.5
2022-11-30T02:04:47.000Z,24.6
2022-11-30T02:06:03.000Z,21.9
2022-11-30T02:07:19.000Z,23.9
2022-11-30T02:08:36.000Z,23.9
2022-11-30T02:09:52.000Z,24.4
2022-11-30T02:11:08.000Z,23.5
2022-11-30T02:12:24.000Z,29.3
2022-11-30T02:13:40.000Z,29.9
2022-11-30T02:14:56.000Z,26.5
2022-11-30T02:16:12.000Z,26.5
2022-11-30T02:17:28.000Z,22.3
2022-11-30T02:18:44.000Z,28.4
2022-11-30T02:20:01.000Z,23.5
2022-11-30T02:21:17.000Z,24.8
2022-11-30T02:22:33.000Z,26.5
2022-11-30T02:23:49.000Z,25.5
2022-11-30T02:25:06.000Z,21.3
2022-11-30T02:26:22.000Z,22.7
2022-11-30T02:27:38.000Z,30.1
2022-11-30T02:28:54.000Z,25.4
2022-11-30T02:30:10.000Z,26.4
2022-11-30T02:31:26.000Z,22.5
2022-11-30T02:32:42.000Z,27.5
2022-11-30T02:33:58.000Z,23.3
2022-11-30T02:35:15.000Z,26.1
2022-11-30T02:36:31.000Z,26.5
2022-11-30T02:37:47.000Z,26.7
2022-11-30T02:39:03.000Z,27.4
2022-11-30T02:40:19.000Z,33
2022-11-30T02:41:36.000Z,31.8
2022-11-30T02:42:52.000Z,36.7
2022-11-30T02:44:08.000Z,35.5
2022-11-30T02:45:24.000Z,34.6
2022-11-30T02:46:40.000Z,34.4
2022-11-30T02:47:56.000Z,33.2
2022-11-30T02:49:12.000Z,35
2022-11-30T02:50:28.000Z,40.8
2022-11-30T02:51:45.000Z,33.4
2022-11-30T02:53:01.000Z,35.2
2022-11-30T02:54:17.000Z,38.4
2022-11-30T02:55:33.000Z,38
2022-11-30T02:56:50.000Z,35.4
2022-11-30T02:58:06.000Z,38.3
2022-11-30T02:59:22.000Z,41.4
2022-11-30T03:00:38.000Z,34.8
2022-11-30T03:01:54.000Z,34.7
2022-11-30T03:03:10.000Z,38.3
2022-11-30T03:04:26.000Z,34.8
2022-11-30T03:05:41.000Z,34.3
2022-11-30T03:06:56.000Z,40.7
2022-11-30T03:08:12.000Z,32.7
2022-11-30T03:09:27.000Z,33.8
2022-11-30T03:10:43.000Z,35.7
2022-11-30T03:11:59.000Z,35.2
2022-11-30T03:13:16.000Z,35.3
2022-11-30T03:15:48.000Z,37.6
2022-11-30T03:17:04.000Z,35
2022-11-30T03:18:21.000Z,36
2022-11-30T03:19:37.000Z,38.7
2022-11-30T03:20:53.000Z,40.1
2022-11-30T03:22:09.000Z,39.8
2022-11-30T03:23:26.000Z,32.6
2022-11-30T03:25:58.000Z,35.7
2022-11-30T03:28:30.000Z,32
2022-11-30T03:29:45.000Z,37.7
2022-11-30T03:31:00.000Z,39.5
2022-11-30T03:32:16.000Z,30.7
2022-11-30T03:33:33.000Z,41.3
2022-11-30T03:34:49.000Z,36.9
2022-11-30T03:36:05.000Z,40.2
2022-11-30T03:37:21.000Z,32.1
2022-11-30T03:38:37.000Z,35.5
2022-11-30T03:41:10.000Z,34.4
2022-11-30T03:42:26.000Z,35.2
2022-11-30T03:43:42.000Z,41.4
2022-11-30T03:44:59.000Z,34.9
2022-11-30T03:46:15.000Z,33.1
2022-11-30T03:47:30.000Z,42.6
2022-11-30T03:48:46.000Z,41.7
2022-11-30T03:50:03.000Z,37.5
2022-11-30T03:51:19.000Z,36.3
2022-11-30T03:52:35.000Z,36.5
2022-11-30T03:53:51.000Z,36
2022-11-30T03:55:08.000Z,36.8
2022-11-30T03:56:24.000Z,37.3
2022-11-30T03:57:39.000Z,38.3
2022-11-30T03:58:54.000Z,38.3
2022-11-30T04:00:10.000Z,35.3
2022-11-30T04:01:26.000Z,36.8
2022-11-30T04:02:41.000Z,33.6
2022-11-30T04:03:57.000Z,36.1
2022-11-30T04:05:13.000Z,38.6
2022-11-30T04:06:30.000Z,31.6
2022-11-30T04:07:46.000Z,39
2022-11-30T04:09:02.000Z,43.1
2022-11-30T04:10:18.000Z,39.7
2022-11-30T04:11:35.000Z,36.2
2022-11-30T04:12:51.000Z,40.1
2022-11-30T04:14:07.000Z,36.6
2022-11-30T04:15:23.000Z,39.1
2022-11-30T04:16:40.000Z,38.3
2022-11-30T04:17:56.000Z,39.2
2022-11-30T04:19:11.000Z,37.1
2022-11-30T04:20:27.000Z,40.8
2022-11-30T04:21:44.000Z,32.9
2022-11-30T04:23:00.000Z,37.8
2022-11-30T04:24:16.000Z,42.6
2022-11-30T04:25:32.000Z,43.5
2022-11-30T04:26:48.000Z,41.5
2022-11-30T04:28:04.000Z,38.2
2022-11-30T04:29:19.000Z,42.4
2022-11-30T04:30:35.000Z,38
2022-11-30T04:31:51.000Z,36.7
2022-11-30T04:33:07.000Z,40.4
2022-11-30T04:34:22.000Z,41
2022-11-30T04:35:38.000Z,46
2022-11-30T04:36:54.000Z,40.5
2022-11-30T04:38:11.000Z,45.4
2022-11-30T04:39:27.000Z,42.1
2022-11-30T04:41:59.000Z,46.5
2022-11-30T04:43:16.000Z,49
2022-11-30T04:44:32.000Z,47.7
2022-11-30T04:45:48.000Z,51
2022-11-30T04:47:04.000Z,50.9
2022-11-30T04:48:21.000Z,50
2022-11-30T04:49:37.000Z,52.9
2022-11-30T04:50:52.000Z,46
2022-11-30T04:52:08.000Z,52.1
2022-11-30T04:53:24.000Z,45.3
2022-11-30T04:54:40.000Z,52.9
2022-11-30T04:55:56.000Z,46
2022-11-30T04:57:12.000Z,50.7
2022-11-30T04:58:28.000Z,49.1
2022-11-30T05:01:01.000Z,53.3
2022-11-30T05:02:17.000Z,48.2
2022-11-30T05:03:33.000Z,50.9
2022-11-30T05:04:50.000Z,55
2022-11-30T05:06:06.000Z,47.1
2022-11-30T05:07:22.000Z,60.1
2022-11-30T05:09:55.000Z,54.1
2022-11-30T05:11:10.000Z,56.7
2022-11-30T05:12:26.000Z,59.1
2022-11-30T05:13:42.000Z,59.5
2022-11-30T05:14:59.000Z,55
2022-11-30T05:16:15.000Z,56.5
2022-11-30T05:17:31.000Z,55
2022-11-30T05:18:47.000Z,59.3
2022-11-30T05:20:03.000Z,58.8
2022-11-30T05:21:20.000Z,69.2
2022-11-30T05:22:36.000Z,64.9
2022-11-30T05:23:52.000Z,63.1
2022-11-30T05:25:08.000Z,71.2
2022-11-30T05:26:25.000Z,65.2
2022-11-30T05:27:40.000Z,72.1
2022-11-30T05:28:56.000Z,65.2
2022-11-30T05:30:12.000Z,74.8
2022-11-30T05:31:29.000Z,72.1
2022-11-30T05:32:45.000Z,67.9
2022-11-30T05:34:01.000Z,80.3
2022-11-30T05:36:34.000Z,72.4
2022-11-30T05:37:50.000Z,64.2
2022-11-30T05:39:06.000Z,81
2022-11-30T05:40:22.000Z,80.8
2022-11-30T05:41:38.000Z,72.6
2022-11-30T05:42:55.000Z,60.2
2022-11-30T05:44:10.000Z,76
2022-11-30T05:45:26.000Z,73
2022-11-30T05:46:42.000Z,76.3
2022-11-30T05:47:59.000Z,68.3
2022-11-30T05:49:15.000Z,64.9
2022-11-30T05:50:31.000Z,68.7
2022-11-30T05:51:47.000Z,64.2
2022-11-30T05:53:04.000Z,72.7
2022-11-30T05:54:20.000Z,66.7
2022-11-30T05:55:36.000Z,61.4
2022-11-30T05:56:52.000Z,63.6
2022-11-30T05:58:08.000Z,62.1
2022-11-30T05:59:25.000Z,68
2022-11-30T06:00:40.000Z,66.2
2022-11-30T06:01:56.000Z,64
2022-11-30T06:03:12.000Z,63.3
2022-11-30T06:04:29.000Z,54.5
2022-11-30T06:05:45.000Z,60
2022-11-30T06:07:01.000Z,64.1
2022-11-30T06:08:17.000Z,54.5
2022-11-30T06:09:34.000Z,65.8
2022-11-30T06:10:50.000Z,55
2022-11-30T06:12:06.000Z,60.6
2022-11-30T06:13:22.000Z,53.6
2022-11-30T06:14:39.000Z,61
2022-11-30T06:15:55.000Z,53.9
2022-11-30T06:17:10.000Z,60
2022-11-30T06:18:26.000Z,63.9
2022-11-30T06:19:42.000Z,51.5
2022-11-30T06:20:59.000Z,46.9
2022-11-30T06:22:15.000Z,48.8
2022-11-30T06:23:31.000Z,46.3
2022-11-30T06:24:47.000Z,38
2022-11-30T06:26:04.000Z,45.1
2022-11-30T06:27:20.000Z,45.2
2022-11-30T06:28:36.000Z,39.5
2022-11-30T06:29:52.000Z,38.6
2022-11-30T06:31:09.000Z,33.8
2022-11-30T06:32:25.000Z,31.5
2022-11-30T06:33:40.000Z,35.2
2022-11-30T06:34:56.000Z,34.2
2022-11-30T06:36:13.000Z,28.4
2022-11-30T06:37:29.000Z,30.7
2022-11-30T06:38:45.000Z,22.8
2022-11-30T06:40:01.000Z,30.7
2022-11-30T06:41:17.000Z,26.4
2022-11-30T06:42:34.000Z,30.7
2022-11-30T06:43:50.000Z,31.6
2022-11-30T06:45:06.000Z,26.6
2022-11-30T06:46:22.000Z,24.3
2022-11-30T06:47:39.000Z,34.1
2022-11-30T06:48:55.000Z,28.1
2022-11-30T06:50:11.000Z,25.4
2022-11-30T06:51:27.000Z,27.2
2022-11-30T06:52:43.000Z,24.7
2022-11-30T06:53:59.000Z,29.8
2022-11-30T06:55:15.000Z,30.5
2022-11-30T06:56:31.000Z,28.6
2022-11-30T06:57:48.000Z,31.1
2022-11-30T06:59:04.000Z,33.1
2022-11-30T07:00:20.000Z,29.4
2022-11-30T07:01:36.000Z,21.9
2022-11-30T07:02:52.000Z,31.7
2022-11-30T07:05:25.000Z,31.4
2022-11-30T07:06:41.000Z,34.7
2022-11-30T07:07:57.000Z,34.8
2022-11-30T07:09:13.000Z,31.5
2022-11-30T07:10:29.000Z,41.1
2022-11-30T07:11:45.000Z,40.5
2022-11-30T07:13:01.000Z,41.7
2022-11-30T07:14:18.000Z,44.6
2022-11-30T07:15:34.000Z,40.3
2022-11-30T07:16:50.000Z,44.5
2022-11-30T07:18:06.000Z,46.4
2022-11-30T07:19:23.000Z,47.8
2022-11-30T07:20:39.000Z,45.2
2022-11-30T07:21:55.000Z,42
2022-11-30T07:23:11.000Z,46.2
2022-11-30T07:24:27.000Z,50.6
2022-11-30T07:25:43.000Z,47.9
2022-11-30T07:26:59.000Z,45.6
2022-11-30T07:28:15.000Z,43.6
2022-11-30T07:29:31.000Z,45.5
2022-11-30T07:30:48.000Z,60.7
2022-11-30T07:32:04.000Z,54.7
2022-11-30T07:33:20.000Z,60.5
2022-11-30T07:34:36.000Z,62.4
2022-11-30T07:35:53.000Z,55.6
2022-11-30T07:37:09.000Z,60.5
2022-11-30T07:38:25.000Z,57.1
2022-11-30T07:39:41.000Z,52.8
2022-11-30T07:40:58.000Z,65.9
2022-11-30T07:42:14.000Z,59.1
2022-11-30T07:43:29.000Z,48.2
2022-11-30T07:44:45.000Z,59.3
2022-11-30T07:46:01.000Z,50
2022-11-30T07:47:18.000Z,57.1
2022-11-30T07:48:34.000Z,56.2
2022-11-30T07:49:50.000Z,52.6
2022-11-30T07:51:06.000Z,49.4
2022-11-30T07:52:23.000Z,50.5
2022-11-30T07:53:39.000Z,52.4
2022-11-30T07:54:55.000Z,38.3
2022-11-30T07:56:11.000Z,39.6
2022-11-30T07:57:28.000Z,31.5
2022-11-30T07:58:44.000Z,33.7
2022-11-30T07:59:59.000Z,35.7
2022-11-30T08:01:15.000Z,28.6
2022-11-30T08:02:32.000Z,38.7
2022-11-30T08:03:48.000Z,31.3
2022-11-30T08:05:04.000Z,36
2022-11-30T08:06:20.000Z,32.8
2022-11-30T08:07:36.000Z,37.4
2022-11-30T08:08:53.000Z,29.1
2022-11-30T08:10:09.000Z,30.6
2022-11-30T08:11:25.000Z,33.1
2022-11-30T08:12:41.000Z,27
2022-11-30T08:13:58.000Z,28.7
2022-11-30T08:15:14.000Z,29.4
2022-11-30T08:16:29.000Z,26
2022-11-30T08:17:45.000Z,30.9
2022-11-30T08:19:02.000Z,28.8
2022-11-30T08:20:18.000Z,37.7
2022-11-30T08:21:34.000Z,29.9
2022-11-30T08:22:50.000Z,33.2
2022-11-30T08:24:07.000Z,31.8
2022-11-30T08:25:23.000Z,37.8
2022-11-30T08:26:39.000Z,29.3
2022-11-30T08:27:55.000Z,32.2
2022-11-30T08:29:11.000Z,36.7
2022-11-30T08:30:26.000Z,31.3
2022-11-30T08:31:41.000Z,33.8
2022-11-30T08:32:57.000Z,30.2
2022-11-30T08:34:13.000Z,30.4
2022-11-30T08:35:29.000Z,25
2022-11-30T08:36:45.000Z,27.5
2022-11-30T08:38:01.000Z,33
2022-11-30T08:39:17.000Z,24.5
2022-11-30T08:40:34.000Z,24.7
2022-11-30T08:41:50.000Z,25.9
2022-11-30T08:43:06.000Z,17.8
2022-11-30T08:44:22.000Z,23.4
2022-11-30T08:45:39.000Z,20.6
2022-11-30T08:46:55.000Z,26.4
2022-11-30T08:48:11.000Z,26.8
2022-11-30T08:49:27.000Z,20
2022-11-30T08:50:43.000Z,22.9
2022-11-30T08:51:59.000Z,35.4
2022-11-30T08:53:15.000Z,18.2
2022-11-30T08:54:31.000Z,20.3
2022-11-30T08:55:48.000Z,24.6
2022-11-30T08:57:04.000Z,27.9
2022-11-30T08:58:20.000Z,29.1
2022-11-30T08:59:36.000Z,25.8
2022-11-30T09:00:52.000Z,26.5
2022-11-30T09:02:09.000Z,28.3
2022-11-30T09:03:25.000Z,29.5
2022-11-30T09:04:41.000Z,21.7
2022-11-30T09:05:57.000Z,26
2022-11-30T09:07:13.000Z,25.9
2022-11-30T09:08:29.000Z,22.8
2022-11-30T09:09:44.000Z,23.9
2022-11-30T09:11:00.000Z,26.1
2022-11-30T09:12:17.000Z,20.9
2022-11-30T09:13:33.000Z,23.6
2022-11-30T09:14:49.000Z,24.3
2022-11-30T09:16:05.000Z,25.6
2022-11-30T09:17:22.000Z,25.2
2022-11-30T09:18:38.000Z,27.4
2022-11-30T09:19:54.000Z,25.3
2022-11-30T09:21:10.000Z,23.9
2022-11-30T09:22:26.000Z,21.9
2022-11-30T09:23:43.000Z,21.7
2022-11-30T09:24:59.000Z,27.6
2022-11-30T09:26:14.000Z,24.9
2022-11-30T09:27:30.000Z,27.8
2022-11-30T09:28:47.000Z,19.5
2022-11-30T09:30:03.000Z,25.2
2022-11-30T09:31:19.000Z,23.3
2022-11-30T09:32:35.000Z,28.3
2022-11-30T09:33:52.000Z,25.7
2022-11-30T09:35:08.000Z,25.2
2022-11-30T09:36:24.000Z,23.7
2022-11-30T09:37:40.000Z,29.2
2022-11-30T09:38:57.000Z,30.1
2022-11-30T09:40:13.000Z,27.3
2022-11-30T09:41:29.000Z,24.1
2022-11-30T09:42:44.000Z,26.5
2022-11-30T09:44:00.000Z,24.3
2022-11-30T09:45:17.000Z,24.5
2022-11-30T09:46:33.000Z,24.9
2022-11-30T09:47:49.000Z,26
2022-11-30T09:49:05.000Z,29.6
2022-11-30T09:50:22.000Z,38
2022-11-30T09:51:38.000Z,24.7
2022-11-30T09:52:54.000Z,27.7
2022-11-30T09:54:10.000Z,30.3
2022-11-30T09:55:27.000Z,25.9
2022-11-30T09:56:43.000Z,27.2
2022-11-30T09:57:59.000Z,26.4
2022-11-30T09:59:14.000Z,28
2022-11-30T10:00:31.000Z,31.3
2022-11-30T10:01:47.000Z,30.4
2022-11-30T10:03:03.000Z,32
2022-11-30T10:04:19.000Z,28.5
2022-11-30T10:05:35.000Z,33.5
2022-11-30T10:06:52.000Z,28.2
2022-11-30T10:08:08.000Z,31.9
2022-11-30T10:09:24.000Z,39.4
2022-11-30T10:10:40.000Z,37
2022-11-30T10:11:57.000Z,32.3
2022-11-30T10:13:13.000Z,32.4
2022-11-30T10:14:29.000Z,34.1
2022-11-30T10:15:44.000Z,34.9
2022-11-30T10:17:01.000Z,38.1
2022-11-30T10:18:17.000Z,41.1
2022-11-30T10:19:33.000Z,34.7
2022-11-30T10:20:49.000Z,33.5
2022-11-30T10:22:06.000Z,41
2022-11-30T10:23:22.000Z,37.3
2022-11-30T10:24:38.000Z,35.5
2022-11-30T10:25:54.000Z,40.2
2022-11-30T10:27:10.000Z,43.3
2022-11-30T10:28:27.000Z,45.7
2022-11-30T10:29:43.000Z,35.8
2022-11-30T10:30:59.000Z,42.9
2022-11-30T10:32:14.000Z,36.3
2022-11-30T10:33:31.000Z,37.8
2022-11-30T10:34:47.000Z,40.4
2022-11-30T10:36:03.000Z,34.6
2022-11-30T10:37:19.000Z,38.4
2022-11-30T10:38:36.000Z,34.3
2022-11-30T10:39:52.000Z,34.3
2022-11-30T10:41:08.000Z,53.2
2022-11-30T10:42:24.000Z,63.4
2022-11-30T10:43:41.000Z,51.4
2022-11-30T10:44:57.000Z,47.8
2022-11-30T10:46:13.000Z,44
2022-11-30T10:47:29.000Z,52.7
2022-11-30T10:48:44.000Z,49.3
2022-11-30T10:50:01.000Z,45
2022-11-30T10:51:17.000Z,49.1
2022-11-30T10:52:33.000Z,55.4
2022-11-30T10:53:49.000Z,46.9
2022-11-30T10:55:06.000Z,40.1
2022-11-30T10:56:22.000Z,48.1
2022-11-30T10:57:38.000Z,35.1
2022-11-30T10:58:54.000Z,41.8
2022-11-30T11:00:11.000Z,37.3
2022-11-30T11:01:27.000Z,36
2022-11-30T11:02:43.000Z,42.2
2022-11-30T11:03:59.000Z,48.7
2022-11-30T11:05:15.000Z,40
2022-11-30T11:06:31.000Z,40.1
2022-11-30T11:07:47.000Z,36.6
2022-11-30T11:09:03.000Z,34.9
2022-11-30T11:10:19.000Z,37.3
2022-11-30T11:11:36.000Z,36.5
2022-11-30T11:12:52.000Z,39.4
2022-11-30T11:14:08.000Z,32.7
2022-11-30T11:15:24.000Z,46
2022-11-30T11:16:41.000Z,34.1
2022-11-30T11:17:57.000Z,37.7
2022-11-30T11:19:13.000Z,35.7
2022-11-30T11:20:29.000Z,34.7
2022-11-30T11:21:46.000Z,37.9
2022-11-30T11:23:01.000Z,56.4
2022-11-30T11:24:17.000Z,47.5
2022-11-30T11:25:33.000Z,52.8
2022-11-30T11:26:50.000Z,38
2022-11-30T11:28:06.000Z,38.8
2022-11-30T11:29:22.000Z,35.8
2022-11-30T11:30:38.000Z,34.3
2022-11-30T11:31:54.000Z,25.3
2022-11-30T11:33:11.000Z,31.2
2022-11-30T11:34:27.000Z,27.9
2022-11-30T11:35:43.000Z,32.9
2022-11-30T11:36:59.000Z,34.9
2022-11-30T11:38:16.000Z,38.6
2022-11-30T11:39:31.000Z,33
2022-11-30T11:40:47.000Z,40.7
2022-11-30T11:42:03.000Z,33.5
2022-11-30T11:43:20.000Z,34.8
2022-11-30T11:44:36.000Z,32.6
2022-11-30T11:45:52.000Z,40.4
2022-11-30T11:47:08.000Z,42.7
2022-11-30T11:48:25.000Z,40.5
2022-11-30T11:49:41.000Z,36.3
2022-11-30T11:50:57.000Z,39.3
2022-11-30T11:52:13.000Z,33.6
2022-11-30T11:53:29.000Z,37.3
2022-11-30T11:54:46.000Z,38.4
2022-11-30T11:56:01.000Z,30.3
2022-11-30T11:57:17.000Z,31.7
2022-11-30T11:58:33.000Z,44.1
2022-11-30T11:59:50.000Z,36.6
2022-11-30T12:01:06.000Z,32.7
2022-11-30T12:02:22.000Z,33.7
2022-11-30T12:03:38.000Z,30.2
2022-11-30T12:04:55.000Z,29.7
2022-11-30T12:06:11.000Z,38.1
2022-11-30T12:07:27.000Z,31.9
2022-11-30T12:08:43.000Z,29.1
2022-11-30T12:09:59.000Z,32
2022-11-30T12:11:16.000Z,30.4
2022-11-30T12:12:31.000Z,27.8
2022-11-30T12:13:47.000Z,31.4
2022-11-30T12:15:03.000Z,29.2
2022-11-30T12:16:20.000Z,29.7
2022-11-30T12:17:36.000Z,29.8
2022-11-30T12:18:52.000Z,41.8
2022-11-30T12:20:08.000Z,35.7
2022-11-30T12:21:25.000Z,27.8
2022-11-30T12:22:41.000Z,33.1
2022-11-30T12:23:57.000Z,38.2
2022-11-30T12:25:13.000Z,27.6
2022-11-30T12:26:30.000Z,32
2022-11-30T12:27:46.000Z,33.7
2022-11-30T12:29:01.000Z,38.7
2022-11-30T12:30:17.000Z,30.2
2022-11-30T12:31:34.000Z,29.6
2022-11-30T12:34:06.000Z,28.7
2022-11-30T12:35:22.000Z,33.2
2022-11-30T12:36:38.000Z,33.5
2022-11-30T12:37:55.000Z,30.7
2022-11-30T12:39:11.000Z,33.2
2022-11-30T12:40:27.000Z,28.3
2022-11-30T12:41:43.000Z,31.9
2022-11-30T12:43:00.000Z,27.6
2022-11-30T12:44:16.000Z,31.8
2022-11-30T12:45:31.000Z,27.9
2022-11-30T12:46:47.000Z,31.8
2022-11-30T12:48:04.000Z,28.6
2022-11-30T12:49:20.000Z,29.6
2022-11-30T12:50:36.000Z,26.8
2022-11-30T12:51:52.000Z,27
2022-11-30T12:53:09.000Z,25.6
2022-11-30T12:54:25.000Z,28.5
2022-11-30T12:55:41.000Z,27.9
2022-11-30T12:56:57.000Z,38.9
2022-11-30T12:58:13.000Z,30.8
2022-11-30T12:59:30.000Z,26.1
2022-11-30T13:00:46.000Z,33.4
2022-11-30T13:02:01.000Z,25.3
2022-11-30T13:03:17.000Z,25.1
2022-11-30T13:04:34.000Z,23.8
2022-11-30T13:05:50.000Z,30.9
2022-11-30T13:07:06.000Z,30.3
2022-11-30T13:08:22.000Z,25.4
2022-11-30T13:09:39.000Z,26.1
2022-11-30T13:10:55.000Z,24.6
2022-11-30T13:12:11.000Z,25.6
2022-11-30T13:13:27.000Z,19.4
2022-11-30T13:14:43.000Z,23.2
2022-11-30T13:16:00.000Z,22.4
2022-11-30T13:17:16.000Z,21.8
2022-11-30T13:18:31.000Z,21.9
2022-11-30T13:19:47.000Z,24.4
2022-11-30T13:21:04.000Z,18.6
2022-11-30T13:22:20.000Z,21.3
2022-11-30T13:24:52.000Z,25.3
2022-11-30T13:26:08.000Z,21
2022-11-30T13:27:24.000Z,49.6
2022-11-30T13:28:40.000Z,33.3
2022-11-30T13:29:56.000Z,25.6
2022-11-30T13:31:13.000Z,23.7
2022-11-30T13:32:29.000Z,21.5
2022-11-30T13:33:45.000Z,24.1
2022-11-30T13:35:01.000Z,25.3
2022-11-30T13:37:34.000Z,20.8
2022-11-30T13:38:50.000Z,25.5
2022-11-30T13:41:22.000Z,25.1
2022-11-30T13:42:38.000Z,20.9
2022-11-30T13:43:53.000Z,23.6
2022-11-30T13:45:09.000Z,22.9
2022-11-30T13:46:25.000Z,20.9
2022-11-30T13:47:42.000Z,25.4
2022-11-30T13:50:14.000Z,22.5
2022-11-30T13:51:30.000Z,21.8
2022-11-30T13:52:47.000Z,21
2022-11-30T13:54:03.000Z,23.1
2022-11-30T13:55:19.000Z,26.4
2022-11-30T13:56:35.000Z,17.8
2022-11-30T13:57:52.000Z,22.4
2022-11-30T13:59:08.000Z,19
2022-11-30T14:00:24.000Z,24.6
2022-11-30T14:01:39.000Z,17.8
2022-11-30T14:02:55.000Z,19.1
2022-11-30T14:04:12.000Z,18.8
2022-11-30T14:05:28.000Z,26.1
2022-11-30T14:06:44.000Z,25.6
2022-11-30T14:08:00.000Z,24.6
2022-11-30T14:09:17.000Z,28.5
2022-11-30T14:10:32.000Z,62.6
2022-11-30T14:11:47.000Z,26.1
2022-11-30T14:13:03.000Z,28
2022-11-30T14:15:36.000Z,28.6
2022-11-30T14:18:08.000Z,31.6
2022-11-30T14:19:25.000Z,23
2022-11-30T14:20:41.000Z,20.7
2022-11-30T14:21:57.000Z,22.6
2022-11-30T14:23:13.000Z,20.9
2022-11-30T14:24:30.000Z,21.2
2022-11-30T14:25:46.000Z,21
2022-11-30T14:27:01.000Z,20
2022-11-30T14:28:17.000Z,20.4
2022-11-30T14:29:32.000Z,17.5
2022-11-30T14:30:49.000Z,23.3
2022-11-30T14:32:05.000Z,27.5
2022-11-30T14:33:21.000Z,26.4
2022-11-30T14:34:37.000Z,19.9
2022-11-30T14:35:54.000Z,24
2022-11-30T14:37:10.000Z,20.3
2022-11-30T14:38:26.000Z,20
2022-11-30T14:39:42.000Z,26.1
2022-11-30T14:40:58.000Z,25.4
2022-11-30T14:42:13.000Z,24.9
2022-11-30T14:43:29.000Z,32.3
2022-11-30T14:44:45.000Z,23.7
2022-11-30T14:46:02.000Z,30.7
2022-11-30T14:47:18.000Z,26.9
2022-11-30T14:48:34.000Z,25.2
2022-11-30T14:49:50.000Z,28.1
2022-11-30T14:51:07.000Z,25.9
2022-11-30T14:53:39.000Z,26.7
2022-11-30T14:54:55.000Z,27.1
2022-11-30T14:56:11.000Z,32.8
2022-11-30T14:57:28.000Z,23
2022-11-30T14:58:43.000Z,22.5
2022-11-30T14:59:59.000Z,21.2
2022-11-30T15:01:15.000Z,30
2022-11-30T15:02:32.000Z,23.8
2022-11-30T15:03:48.000Z,24
2022-11-30T15:05:04.000Z,22.8
2022-11-30T15:06:20.000Z,25.6
2022-11-30T15:07:37.000Z,26.8
2022-11-30T15:08:53.000Z,26.4
2022-11-30T15:10:09.000Z,25.6
2022-11-30T15:11:25.000Z,30.7
2022-11-30T15:12:42.000Z,28.8
2022-11-30T15:13:58.000Z,28.4
2022-11-30T15:15:13.000Z,31.4
2022-11-30T15:16:29.000Z,30.5
2022-11-30T15:19:02.000Z,27.5
2022-11-30T15:20:18.000Z,26.9
2022-11-30T15:21:34.000Z,31.2
2022-11-30T15:22:50.000Z,33.6
2022-11-30T15:24:07.000Z,23.5
2022-11-30T15:25:23.000Z,30.8
2022-11-30T15:26:39.000Z,32
2022-11-30T15:27:55.000Z,37.9
2022-11-30T15:29:12.000Z,35.1
2022-11-30T15:30:28.000Z,35
2022-11-30T15:31:43.000Z,38.1
2022-11-30T15:32:59.000Z,35.8
2022-11-30T15:34:16.000Z,37.5
2022-11-30T15:35:32.000Z,44.4
2022-11-30T15:36:48.000Z,42.8
2022-11-30T15:38:04.000Z,41.6
2022-11-30T15:39:20.000Z,34.6
2022-11-30T15:40:37.000Z,44.9
2022-11-30T15:41:53.000Z,33.2
2022-11-30T15:43:09.000Z,33.9
2022-11-30T15:44:25.000Z,38.9
2022-11-30T15:45:42.000Z,39.1
2022-11-30T15:46:58.000Z,38.3
2022-11-30T15:48:13.000Z,40
2022-11-30T15:49:29.000Z,34.9
2022-11-30T15:50:46.000Z,29.4
2022-11-30T15:52:02.000Z,41.3
2022-11-30T15:53:18.000Z,28.1
2022-11-30T15:54:34.000Z,33.7
2022-11-30T15:55:51.000Z,30.5
2022-11-30T15:57:07.000Z,33.4
2022-11-30T15:58:23.000Z,32.5
2022-11-30T15:59:39.000Z,39.2
2022-11-30T16:00:55.000Z,36.5
2022-11-30T16:02:12.000Z,33.3
2022-11-30T16:03:28.000Z,35.5
2022-11-30T16:05:59.000Z,40.6
2022-11-30T16:07:16.000Z,36.8
2022-11-30T16:09:48.000Z,45.2
2022-11-30T16:11:04.000Z,49.2
2022-11-30T16:12:21.000Z,40.8
2022-11-30T16:13:37.000Z,48.3
2022-11-30T16:14:53.000Z,52.3
2022-11-30T16:16:09.000Z,48.3
2022-11-30T16:17:26.000Z,41.2
2022-11-30T16:18:42.000Z,52
2022-11-30T16:19:58.000Z,43.7
2022-11-30T16:21:13.000Z,57.9
2022-11-30T16:22:29.000Z,48.6
2022-11-30T16:23:46.000Z,44.8
2022-11-30T16:25:02.000Z,48.7
2022-11-30T16:26:18.000Z,55.6
2022-11-30T16:27:34.000Z,60.3
2022-11-30T16:28:51.000Z,59.6
2022-11-30T16:30:07.000Z,50.7
2022-11-30T16:31:23.000Z,56.4
2022-11-30T16:32:39.000Z,52.1
2022-11-30T16:33:56.000Z,72.9
2022-11-30T16:35:12.000Z,65.6
2022-11-30T16:36:28.000Z,69
2022-11-30T16:37:43.000Z,67.8
2022-11-30T16:38:59.000Z,73.6
2022-11-30T16:40:14.000Z,82.1
2022-11-30T16:41:29.000Z,76.5
2022-11-30T16:42:45.000Z,79.8
2022-11-30T16:44:02.000Z,78.2
2022-11-30T16:45:18.000Z,83.3
2022-11-30T16:46:34.000Z,85.7
2022-11-30T16:47:50.000Z,76.9
2022-11-30T16:49:06.000Z,81.7
2022-11-30T16:50:23.000Z,88.9
2022-11-30T16:51:39.000Z,91.1
2022-11-30T16:52:55.000Z,88.3
2022-11-30T16:54:11.000Z,110
2022-11-30T16:55:28.000Z,100.5
2022-11-30T16:56:44.000Z,87.4
2022-11-30T16:57:59.000Z,81.8
2022-11-30T16:59:15.000Z,86
2022-11-30T17:00:32.000Z,83.9
2022-11-30T17:01:48.000Z,73.9
2022-11-30T17:03:04.000Z,74
2022-11-30T17:04:20.000Z,88.6
2022-11-30T17:05:37.000Z,88.9
2022-11-30T17:06:52.000Z,89.8
2022-11-30T17:08:07.000Z,80.7
2022-11-30T17:09:23.000Z,75.5
2022-11-30T17:10:40.000Z,83.7
2022-11-30T17:13:12.000Z,109.7
2022-11-30T17:14:27.000Z,100.7
2022-11-30T17:15:42.000Z,108.6
2022-11-30T17:16:59.000Z,86
2022-11-30T17:18:15.000Z,99.6
2022-11-30T17:19:31.000Z,99.6
2022-11-30T17:20:47.000Z,85.8
2022-11-30T17:22:04.000Z,90.2
2022-11-30T17:23:20.000Z,101.8
2022-11-30T17:24:36.000Z,92.9
2022-11-30T17:25:52.000Z,109.9
2022-11-30T17:27:09.000Z,105.9